Accueil
METAR-TAF:

METAR-TAF

Aéroports :

Akrotiri, Chypre

latitude: 34-35N, longitude: 032-59E, altitude: 23 m

Observation

Le bulletin a été fait il y a 25 minutes, à 21:50 UTC
Vent 5 kt de ouest
Température 14°C
Humidité 82%
Pression 1014 hPa
Visibilité 10 km ou plus
Quelques nuages à une hauteur de 3500 ft

METAR: LCRA 192150Z 28005KT 9999 FEW035 14/11 Q1014

Heure: 01:15 (22:15 UTC)

Prévision

Le bulletin a été fait il y a 3 heures et 2 minutes, à 19:13 UTC
Prévision valable du 19 à 21 UTC au 20 à 15 UTC
Vent 10 kt de ouest/nord-ouest
Visibilité 10 km ou plus
Quelques nuages à une hauteur de 3500 ft
Probabilité 30% :
Temporairement
du 20 à 03 UTC au 20 à 15 UTC
Visibilité: 4000 m
Nuages épars à une hauteur de 2000 ft, Cumulonimbus.
orage, pluie
Evoluant progressivement
du 20 à 06 UTC au 20 à 09 UTC
Vent 15 kt de ouest

TAF: LCRA 191913Z 1921/2015 29010KT 9999 FEW035 PROB30 TEMPO 2003/2015 4000 TSRA SCT020CB BECMG 2006/2009 26015KT

Observations et prévisions météorologiques de plus de 4000 aéroports (messages METAR et TAF).

Les stations disponibles sont représentées par des disques jaunes et rouges sur la carte.

Passer la souris dessus pour voir le nom de la station.

Cliquer dessus pour voir les observations et prévisions météorologiques.

Pour changer de carte: cliquez sur les boutons verts avec une croix noire pour zoomer, sur le bouton vert avec un tiret pour effectuer un zoom arrière, ou sur les flèches vertes pour les cartes adjacentes.


METAR-TAF: